createdAt,value
2016-08-01T00:00:37.068Z,0
2016-08-01T00:01:37.026Z,0
2016-08-01T00:02:37.065Z,0
2016-08-01T00:03:37.074Z,0
2016-08-01T00:04:37.069Z,0
2016-08-01T00:05:37.072Z,0
2016-08-01T00:06:37.087Z,0
2016-08-01T00:07:37.103Z,0
2016-08-01T00:08:37.091Z,0
2016-08-01T00:09:37.125Z,0
2016-08-01T00:10:37.120Z,0
2016-08-01T00:11:37.100Z,0
2016-08-01T00:12:37.132Z,0
2016-08-01T00:13:37.166Z,0
2016-08-01T00:14:37.123Z,0
2016-08-01T00:15:37.187Z,0
2016-08-01T00:16:37.180Z,0
2016-08-01T00:17:37.160Z,0
2016-08-01T00:18:37.207Z,0
2016-08-01T00:19:37.185Z,0
2016-08-01T00:20:37.186Z,0
2016-08-01T00:21:37.209Z,0
2016-08-01T00:22:37.217Z,0
2016-08-01T00:23:37.226Z,0
2016-08-01T00:24:37.225Z,0
2016-08-01T00:25:37.263Z,0
2016-08-01T00:26:37.264Z,0
2016-08-01T00:27:37.251Z,0
2016-08-01T00:28:37.249Z,0
2016-08-01T00:29:37.290Z,0
2016-08-01T00:30:37.289Z,0
2016-08-01T00:31:37.298Z,0
2016-08-01T00:32:37.307Z,0
2016-08-01T00:33:37.340Z,0
2016-08-01T00:34:37.349Z,0
2016-08-01T00:35:37.318Z,0
2016-08-01T00:36:37.347Z,0
2016-08-01T00:37:37.348Z,0
2016-08-01T00:38:37.357Z,0
2016-08-01T00:39:37.355Z,0
2016-08-01T00:40:37.362Z,0
2016-08-01T00:41:37.383Z,0
2016-08-01T00:42:37.389Z,0
2016-08-01T00:43:37.378Z,0
2016-08-01T00:44:37.406Z,0
2016-08-01T00:45:37.413Z,0
2016-08-01T00:46:37.404Z,0
2016-08-01T00:47:37.448Z,0
2016-08-01T00:48:37.481Z,0
2016-08-01T00:49:37.404Z,0
2016-08-01T00:50:38.124Z,0
2016-08-01T00:51:37.449Z,0
2016-08-01T00:52:37.465Z,0
2016-08-01T00:53:37.467Z,0
2016-08-01T00:54:37.473Z,0
2016-08-01T00:55:37.488Z,0
2016-08-01T00:56:37.512Z,0
2016-08-01T00:57:37.514Z,0
2016-08-01T00:58:37.535Z,0
2016-08-01T00:59:37.534Z,0
2016-08-01T01:00:37.537Z,0
2016-08-01T01:01:37.532Z,0
2016-08-01T01:02:37.559Z,0
2016-08-01T01:04:37.571Z,0
2016-08-01T01:05:37.581Z,0
2016-08-01T01:06:37.601Z,0
2016-08-01T01:07:37.597Z,0
2016-08-01T01:08:37.571Z,0
2016-08-01T01:09:37.616Z,0
2016-08-01T01:10:37.641Z,0
2016-08-01T01:11:37.638Z,0
2016-08-01T01:12:37.635Z,0
2016-08-01T01:13:37.650Z,0
2016-08-01T01:14:37.664Z,0
2016-08-01T01:15:37.639Z,0
2016-08-01T01:16:37.671Z,0
2016-08-01T01:17:37.661Z,0
2016-08-01T01:19:37.694Z,0
2016-08-01T01:20:37.710Z,0
2016-08-01T01:21:37.695Z,0
2016-08-01T01:22:37.709Z,0
2016-08-01T01:23:37.723Z,0
2016-08-01T01:24:37.734Z,0
2016-08-01T01:25:37.726Z,0
2016-08-01T01:26:37.733Z,0
2016-08-01T01:27:37.752Z,0
2016-08-01T01:28:37.755Z,0
2016-08-01T01:29:37.760Z,0
2016-08-01T01:30:37.800Z,0
2016-08-01T01:31:37.755Z,0
2016-08-01T01:32:37.762Z,0
2016-08-01T01:34:37.783Z,0
2016-08-01T01:35:37.798Z,0
2016-08-01T01:36:37.822Z,0
2016-08-01T01:37:37.851Z,0
2016-08-01T01:38:37.839Z,0
2016-08-01T01:39:37.851Z,0
2016-08-01T01:40:38.560Z,0
2016-08-01T01:41:37.850Z,0
2016-08-01T01:42:37.867Z,0
2016-08-01T01:43:37.877Z,0
2016-08-01T01:44:37.895Z,0
2016-08-01T01:45:37.904Z,0
2016-08-01T01:46:37.925Z,0
2016-08-01T01:47:37.936Z,0
2016-08-01T01:49:37.933Z,0
2016-08-01T01:50:37.963Z,0
2016-08-01T01:51:37.939Z,0
2016-08-01T01:52:37.965Z,0
2016-08-01T01:53:37.966Z,0
2016-08-01T01:54:37.972Z,0
2016-08-01T01:55:37.956Z,0
2016-08-01T01:56:37.996Z,0
2016-08-01T01:57:37.979Z,0
2016-08-01T01:58:37.995Z,0
2016-08-01T01:59:37.997Z,0
2016-08-01T02:00:37.998Z,0
2016-08-01T02:01:38.026Z,0
2016-08-01T02:02:38.042Z,0
2016-08-01T02:03:38.041Z,0
2016-08-01T02:04:38.079Z,0
2016-08-01T02:05:38.077Z,0
2016-08-01T02:06:38.759Z,0
2016-08-01T02:07:38.093Z,0
2016-08-01T02:08:38.085Z,0
2016-08-01T02:09:38.073Z,0
2016-08-01T02:10:38.118Z,0
2016-08-01T02:11:38.100Z,0
2016-08-01T02:12:38.128Z,0
2016-08-01T02:13:38.113Z,0
2016-08-01T02:14:38.129Z,0
2016-08-01T02:15:38.129Z,0
2016-08-01T02:16:38.134Z,0
2016-08-01T02:17:38.140Z,0
2016-08-01T02:18:38.170Z,0
2016-08-01T02:19:38.201Z,0
2016-08-01T02:20:38.159Z,0
2016-08-01T02:21:38.205Z,0
2016-08-01T02:22:38.208Z,0
2016-08-01T02:23:38.178Z,0
2016-08-01T02:24:38.220Z,0
2016-08-01T02:25:38.929Z,0
2016-08-01T02:26:38.228Z,0
2016-08-01T02:27:38.235Z,0
2016-08-01T02:28:38.229Z,0
2016-08-01T02:29:38.264Z,0
2016-08-01T02:30:38.256Z,0
2016-08-01T02:31:38.293Z,0
2016-08-01T02:32:38.285Z,0
2016-08-01T02:33:38.281Z,0
2016-08-01T02:34:38.288Z,0
2016-08-01T02:35:38.303Z,0
2016-08-01T02:36:38.284Z,0
2016-08-01T02:37:38.320Z,0
2016-08-01T02:38:38.349Z,0
2016-08-01T02:39:38.324Z,0
2016-08-01T02:40:38.330Z,0
2016-08-01T02:41:38.363Z,0
2016-08-01T02:42:38.372Z,0
2016-08-01T02:43:38.397Z,0
2016-08-01T02:44:38.352Z,0
2016-08-01T02:45:38.385Z,0
2016-08-01T02:46:38.404Z,0
2016-08-01T02:47:38.396Z,0
2016-08-01T02:48:38.394Z,0
2016-08-01T02:49:38.423Z,0
2016-08-01T02:50:38.453Z,0
2016-08-01T02:51:38.437Z,0
2016-08-01T02:52:38.684Z,0
2016-08-01T02:53:38.451Z,0
2016-08-01T02:54:38.453Z,0
2016-08-01T02:55:38.464Z,0
2016-08-01T02:56:38.481Z,0
2016-08-01T02:57:38.459Z,0
2016-08-01T02:58:38.509Z,0
2016-08-01T02:59:38.482Z,0
2016-08-01T03:00:38.477Z,0
2016-08-01T03:01:38.513Z,0
2016-08-01T03:02:38.525Z,0
2016-08-01T03:03:38.518Z,0
2016-08-01T03:04:38.543Z,0
2016-08-01T03:05:38.524Z,0
2016-08-01T03:06:38.547Z,0
2016-08-01T03:07:38.557Z,0
2016-08-01T03:08:38.570Z,0
2016-08-01T03:09:38.603Z,0
2016-08-01T03:10:38.586Z,0
2016-08-01T03:11:38.598Z,0
2016-08-01T03:12:38.617Z,0
2016-08-01T03:13:39.319Z,0
2016-08-01T03:14:38.606Z,0
2016-08-01T03:15:38.622Z,0
2016-08-01T03:16:38.631Z,0
2016-08-01T03:17:38.664Z,0
2016-08-01T03:18:38.660Z,0
2016-08-01T03:19:38.661Z,0
2016-08-01T03:20:38.655Z,0
2016-08-01T03:21:38.673Z,0
2016-08-01T03:22:38.668Z,0
2016-08-01T03:23:38.691Z,0
2016-08-01T03:24:38.709Z,0
2016-08-01T03:25:38.699Z,0
2016-08-01T03:26:38.710Z,0
2016-08-01T03:27:38.749Z,0
2016-08-01T03:28:38.738Z,0
2016-08-01T03:29:38.759Z,0
2016-08-01T03:30:38.741Z,0
2016-08-01T03:31:38.753Z,0
2016-08-01T03:32:38.766Z,0
2016-08-01T03:33:38.767Z,0
2016-08-01T03:34:38.788Z,0
2016-08-01T03:35:38.769Z,0
2016-08-01T03:36:38.808Z,0
2016-08-01T03:37:38.785Z,0
2016-08-01T03:38:38.818Z,0
2016-08-01T03:39:38.806Z,0
2016-08-01T03:40:38.845Z,0
2016-08-01T03:41:38.833Z,0
2016-08-01T03:42:38.841Z,0
2016-08-01T03:43:38.867Z,0
2016-08-01T03:44:38.867Z,0
2016-08-01T03:45:38.879Z,0
2016-08-01T03:46:38.899Z,0
2016-08-01T03:47:38.880Z,0
2016-08-01T03:48:38.912Z,0
2016-08-01T03:49:38.958Z,0
2016-08-01T03:50:38.909Z,0
2016-08-01T03:51:38.922Z,0
2016-08-01T03:52:38.930Z,0
2016-08-01T03:53:38.946Z,0
2016-08-01T03:54:38.948Z,0
2016-08-01T03:55:38.961Z,0
2016-08-01T03:56:38.960Z,0
2016-08-01T03:57:38.965Z,0
2016-08-01T03:58:38.952Z,0
2016-08-01T03:59:38.980Z,0
2016-08-01T04:00:38.999Z,0
2016-08-01T04:01:38.991Z,0
2016-08-01T04:02:38.990Z,0
2016-08-01T04:03:39.030Z,4
2016-08-01T04:04:39.028Z,4
2016-08-01T04:05:39.051Z,4
2016-08-01T04:06:39.057Z,4
2016-08-01T04:07:39.051Z,4
2016-08-01T04:08:39.074Z,4
2016-08-01T04:09:39.050Z,4
2016-08-01T04:10:39.070Z,4
2016-08-01T04:11:39.092Z,4
2016-08-01T04:12:39.091Z,4
2016-08-01T04:13:39.067Z,4
2016-08-01T04:14:39.112Z,4
2016-08-01T04:15:39.096Z,4
2016-08-01T04:16:39.109Z,4
2016-08-01T04:17:39.123Z,4
2016-08-01T04:18:39.128Z,4
2016-08-01T04:19:39.165Z,0
2016-08-01T04:20:39.140Z,0
2016-08-01T04:21:39.149Z,4
2016-08-01T04:22:39.161Z,4
2016-08-01T04:23:39.182Z,4
2016-08-01T04:24:39.184Z,4
2016-08-01T04:25:39.191Z,8
2016-08-01T04:26:39.191Z,4
2016-08-01T04:27:39.225Z,4
2016-08-01T04:28:39.207Z,4
2016-08-01T04:29:39.234Z,8
2016-08-01T04:30:39.238Z,8
2016-08-01T04:31:39.230Z,8
2016-08-01T04:32:39.236Z,8
2016-08-01T04:33:39.253Z,12
2016-08-01T04:34:39.254Z,12
2016-08-01T04:35:39.281Z,12
2016-08-01T04:36:39.282Z,12
2016-08-01T04:37:39.312Z,12
2016-08-01T04:38:39.299Z,8
2016-08-01T04:39:39.287Z,12
2016-08-01T04:40:39.299Z,12
2016-08-01T04:41:39.323Z,12
2016-08-01T04:42:39.346Z,16
2016-08-01T04:43:39.350Z,16
2016-08-01T04:44:39.339Z,12
2016-08-01T04:45:39.357Z,16
2016-08-01T04:46:39.355Z,16
2016-08-01T04:47:39.401Z,12
2016-08-01T04:48:39.403Z,16
2016-08-01T04:49:39.439Z,16
2016-08-01T04:50:39.408Z,16
2016-08-01T04:51:39.402Z,16
2016-08-01T04:52:39.403Z,16
2016-08-01T04:53:39.420Z,20
2016-08-01T04:54:39.422Z,20
2016-08-01T04:55:39.445Z,20
2016-08-01T04:56:39.430Z,16
2016-08-01T04:57:39.434Z,20
2016-08-01T04:58:39.462Z,16
2016-08-01T04:59:39.477Z,20
2016-08-01T05:00:39.469Z,20
2016-08-01T05:01:39.467Z,16
2016-08-01T05:02:39.501Z,20
2016-08-01T05:03:39.494Z,20
2016-08-01T05:04:39.479Z,20
2016-08-01T05:05:39.549Z,20
2016-08-01T05:06:39.534Z,20
2016-08-01T05:07:39.533Z,16
2016-08-01T05:08:39.546Z,20
2016-08-01T05:09:39.577Z,20
2016-08-01T05:10:39.533Z,20
2016-08-01T05:11:39.551Z,20
2016-08-01T05:12:39.572Z,20
2016-08-01T05:13:39.584Z,20
2016-08-01T05:14:39.577Z,16
2016-08-01T05:15:39.586Z,16
2016-08-01T05:16:39.610Z,16
2016-08-01T05:17:39.628Z,20
2016-08-01T05:18:39.605Z,20
2016-08-01T05:19:39.637Z,20
2016-08-01T05:20:39.642Z,20
2016-08-01T05:21:39.662Z,20
2016-08-01T05:22:39.663Z,20
2016-08-01T05:23:39.655Z,20
2016-08-01T05:24:39.677Z,20
2016-08-01T05:25:39.672Z,20
2016-08-01T05:26:39.668Z,20
2016-08-01T05:27:39.690Z,16
2016-08-01T05:28:39.715Z,16
2016-08-01T05:29:39.715Z,20
2016-08-01T05:30:39.716Z,20
2016-08-01T05:31:39.721Z,20
2016-08-01T05:32:39.751Z,20
2016-08-01T05:33:39.753Z,16
2016-08-01T05:34:39.741Z,16
2016-08-01T05:35:39.772Z,20
2016-08-01T05:36:39.790Z,20
2016-08-01T05:37:39.763Z,20
2016-08-01T05:38:39.786Z,20
2016-08-01T05:39:39.786Z,20
2016-08-01T05:40:39.772Z,16
2016-08-01T05:41:39.812Z,20
2016-08-01T05:42:39.817Z,20
2016-08-01T05:43:39.810Z,20
2016-08-01T05:44:39.822Z,20
2016-08-01T05:45:39.850Z,20
2016-08-01T05:46:39.834Z,20
2016-08-01T05:47:39.849Z,16
2016-08-01T05:48:39.868Z,20
2016-08-01T05:49:39.918Z,20
2016-08-01T05:50:39.863Z,20
2016-08-01T05:51:39.884Z,24
2016-08-01T05:52:39.875Z,24
2016-08-01T05:53:39.918Z,20
2016-08-01T05:54:39.897Z,20
2016-08-01T05:55:39.909Z,20
2016-08-01T05:56:39.915Z,20
2016-08-01T05:57:39.967Z,12
2016-08-01T05:58:39.948Z,20
2016-08-01T05:59:39.939Z,20
2016-08-01T06:00:39.966Z,20
2016-08-01T06:01:39.957Z,20
2016-08-01T06:02:39.988Z,20
2016-08-01T06:03:39.992Z,16
2016-08-01T06:04:40.012Z,16
2016-08-01T06:05:39.987Z,12
2016-08-01T06:06:39.994Z,24
2016-08-01T06:07:40.015Z,20
2016-08-01T06:08:40.052Z,20
2016-08-01T06:09:40.046Z,20
2016-08-01T06:10:40.057Z,20
2016-08-01T06:11:40.065Z,12
2016-08-01T06:12:40.067Z,16
2016-08-01T06:13:40.061Z,24
2016-08-01T06:14:40.101Z,20
2016-08-01T06:15:40.103Z,24
2016-08-01T06:16:40.078Z,24
2016-08-01T06:17:40.095Z,24
2016-08-01T06:18:40.088Z,16
2016-08-01T06:19:40.095Z,16
2016-08-01T06:20:40.132Z,16
2016-08-01T06:21:40.118Z,12
2016-08-01T06:22:40.144Z,16
2016-08-01T06:23:40.141Z,16
2016-08-01T06:24:40.172Z,20
2016-08-01T06:25:40.167Z,20
2016-08-01T06:26:40.234Z,28
2016-08-01T06:27:40.180Z,20
2016-08-01T06:28:40.225Z,16
2016-08-01T06:29:40.207Z,16
2016-08-01T06:30:40.205Z,20
2016-08-01T06:31:40.222Z,16
2016-08-01T06:32:40.229Z,20
2016-08-01T06:33:40.274Z,16
2016-08-01T06:34:40.264Z,24
2016-08-01T06:35:40.247Z,28
2016-08-01T06:36:40.965Z,24
2016-08-01T06:37:40.257Z,24
2016-08-01T06:38:40.279Z,20
2016-08-01T06:39:40.289Z,20
2016-08-01T06:40:40.294Z,16
2016-08-01T06:41:40.299Z,24
2016-08-01T06:42:40.304Z,16
2016-08-01T06:43:40.302Z,24
2016-08-01T06:44:40.351Z,16
2016-08-01T06:45:40.343Z,20
2016-08-01T06:46:40.357Z,20
2016-08-01T06:47:40.341Z,24
2016-08-01T06:48:40.356Z,20
2016-08-01T06:50:40.341Z,28
2016-08-01T06:51:40.362Z,28
2016-08-01T06:52:40.363Z,20
2016-08-01T06:53:40.377Z,28
2016-08-01T06:54:40.383Z,28
2016-08-01T06:55:40.428Z,16
2016-08-01T06:56:40.440Z,20
2016-08-01T06:57:40.446Z,28
2016-08-01T06:58:40.438Z,28
2016-08-01T06:59:40.447Z,24
2016-08-01T07:00:40.448Z,28
2016-08-01T07:01:40.435Z,20
2016-08-01T07:02:40.469Z,20
2016-08-01T07:03:40.464Z,20
2016-08-01T07:04:40.500Z,28
2016-08-01T07:05:40.504Z,24
2016-08-01T07:06:40.504Z,24
2016-08-01T07:07:40.483Z,24
2016-08-01T07:08:40.521Z,28
2016-08-01T07:09:40.522Z,28
2016-08-01T07:10:40.556Z,28
2016-08-01T07:11:40.525Z,28
2016-08-01T07:12:40.548Z,28
2016-08-01T07:13:40.538Z,24
2016-08-01T07:14:40.560Z,24
2016-08-01T07:15:40.583Z,16
2016-08-01T07:16:40.586Z,20
2016-08-01T07:17:40.586Z,24
2016-08-01T07:18:40.593Z,20
2016-08-01T07:19:40.606Z,16
2016-08-01T07:20:40.615Z,16
2016-08-01T07:21:41.302Z,24
2016-08-01T07:22:40.656Z,28
2016-08-01T07:23:40.636Z,24
2016-08-01T07:24:40.623Z,24
2016-08-01T07:25:40.634Z,24
2016-08-01T07:26:40.624Z,24
2016-08-01T07:27:40.650Z,24
2016-08-01T07:28:40.657Z,24
2016-08-01T07:29:40.714Z,24
2016-08-01T07:30:40.692Z,24
2016-08-01T07:31:40.711Z,24
2016-08-01T07:32:40.719Z,24
2016-08-01T07:33:40.687Z,24
2016-08-01T07:34:40.696Z,20
2016-08-01T07:35:40.743Z,24
2016-08-01T07:36:40.735Z,24
2016-08-01T07:37:40.731Z,24
2016-08-01T07:38:40.761Z,12
2016-08-01T07:39:40.758Z,20
2016-08-01T07:40:40.748Z,24
2016-08-01T07:41:40.766Z,24
2016-08-01T07:42:40.776Z,20
2016-08-01T07:43:40.802Z,24
2016-08-01T07:44:41.478Z,20
2016-08-01T07:45:40.802Z,24
2016-08-01T07:46:40.815Z,24
2016-08-01T07:47:40.815Z,28
2016-08-01T07:48:40.849Z,24
2016-08-01T07:49:40.913Z,24
2016-08-01T07:50:40.831Z,16
2016-08-01T07:51:40.844Z,20
2016-08-01T07:52:40.842Z,24
2016-08-01T07:53:40.866Z,24
2016-08-01T07:54:40.885Z,28
2016-08-01T07:55:40.887Z,28
2016-08-01T07:56:40.882Z,28
2016-08-01T07:57:40.906Z,28
2016-08-01T07:58:40.911Z,28
2016-08-01T07:59:40.917Z,28
2016-08-01T08:00:40.927Z,24
2016-08-01T08:01:40.948Z,28
2016-08-01T08:02:40.928Z,24
2016-08-01T08:03:40.933Z,28
2016-08-01T08:04:40.957Z,28
2016-08-01T08:05:41.003Z,28
2016-08-01T08:06:40.978Z,28
2016-08-01T08:07:40.971Z,28
2016-08-01T08:08:40.969Z,28
2016-08-01T08:09:41.002Z,28
2016-08-01T08:10:40.978Z,28
2016-08-01T08:11:41.020Z,28
2016-08-01T08:12:40.990Z,32
2016-08-01T08:13:41.043Z,28
2016-08-01T08:14:41.040Z,28
2016-08-01T08:15:41.057Z,32
2016-08-01T08:16:41.022Z,32
2016-08-01T08:17:41.041Z,32
2016-08-01T08:18:41.087Z,28
2016-08-01T08:19:41.065Z,32
2016-08-01T08:20:41.090Z,32
2016-08-01T08:21:41.105Z,32
2016-08-01T08:22:41.128Z,32
2016-08-01T08:23:41.109Z,32
2016-08-01T08:24:41.090Z,32
2016-08-01T08:25:41.115Z,32
2016-08-01T08:26:41.124Z,32
2016-08-01T08:27:41.138Z,32
2016-08-01T08:28:41.121Z,32
2016-08-01T08:29:41.156Z,32
2016-08-01T08:30:41.166Z,32
2016-08-01T08:31:41.159Z,36
2016-08-01T08:32:41.181Z,32
2016-08-01T08:33:41.187Z,32
2016-08-01T08:34:41.170Z,36
2016-08-01T08:35:41.205Z,36
2016-08-01T08:36:41.190Z,36
2016-08-01T08:37:41.200Z,36
2016-08-01T08:38:41.210Z,36
2016-08-01T08:39:41.246Z,40
2016-08-01T08:40:41.223Z,36
2016-08-01T08:41:41.249Z,36
2016-08-01T08:42:41.243Z,36
2016-08-01T08:43:41.268Z,36
2016-08-01T08:44:41.287Z,36
2016-08-01T08:45:41.268Z,36
2016-08-01T08:46:41.273Z,40
2016-08-01T08:47:41.301Z,40
2016-08-01T08:48:41.276Z,40
2016-08-01T08:49:41.341Z,40
2016-08-01T08:50:41.319Z,36
2016-08-01T08:51:41.318Z,36
2016-08-01T08:52:41.338Z,36
2016-08-01T08:53:41.330Z,36
2016-08-01T08:54:41.325Z,36
2016-08-01T08:55:41.354Z,40
2016-08-01T08:56:41.339Z,36
2016-08-01T08:57:41.377Z,40
2016-08-01T08:58:41.381Z,40
2016-08-01T08:59:41.362Z,40
2016-08-01T09:00:41.424Z,40
2016-08-01T09:01:41.414Z,40
2016-08-01T09:02:41.423Z,44
2016-08-01T09:03:41.423Z,44
2016-08-01T09:04:41.448Z,44
2016-08-01T09:05:41.427Z,44
2016-08-01T09:06:42.138Z,32
2016-08-01T09:07:41.439Z,40
2016-08-01T09:08:41.473Z,40
2016-08-01T09:09:41.445Z,40
2016-08-01T09:10:41.486Z,28
2016-08-01T09:11:41.478Z,44
2016-08-01T09:12:41.508Z,44
2016-08-01T09:13:41.519Z,44
2016-08-01T09:14:41.510Z,48
2016-08-01T09:15:41.487Z,44
2016-08-01T09:16:41.542Z,28
2016-08-01T09:17:41.552Z,36
2016-08-01T09:18:41.562Z,36
2016-08-01T09:19:41.535Z,32
2016-08-01T09:20:41.561Z,28
2016-08-01T09:21:41.541Z,32
2016-08-01T09:22:41.592Z,28
2016-08-01T09:23:41.573Z,28
2016-08-01T09:24:41.580Z,24
2016-08-01T09:25:41.589Z,24
2016-08-01T09:26:41.621Z,40
2016-08-01T09:27:41.632Z,44
2016-08-01T09:28:41.636Z,44
2016-08-01T09:29:41.619Z,44
2016-08-01T09:30:41.635Z,40
2016-08-01T09:31:41.669Z,44
2016-08-01T09:32:41.641Z,44
2016-08-01T09:33:41.666Z,40
2016-08-01T09:34:41.670Z,44
2016-08-01T09:35:41.679Z,28
2016-08-01T09:36:41.669Z,20
2016-08-01T09:37:41.695Z,20
2016-08-01T09:38:41.691Z,24
2016-08-01T09:39:41.740Z,44
2016-08-01T09:40:41.736Z,44
2016-08-01T09:41:41.739Z,44
2016-08-01T09:42:41.755Z,44
2016-08-01T09:43:41.748Z,44
2016-08-01T09:44:41.759Z,44
2016-08-01T09:45:42.461Z,44
2016-08-01T09:46:41.767Z,40
2016-08-01T09:47:41.767Z,40
2016-08-01T09:48:41.786Z,40
2016-08-01T09:49:41.970Z,40
2016-08-01T09:50:41.796Z,32
2016-08-01T09:51:41.810Z,24
2016-08-01T09:52:42.506Z,40
2016-08-01T09:53:41.806Z,40
2016-08-01T09:54:41.833Z,40
2016-08-01T09:55:41.844Z,40
2016-08-01T09:56:41.826Z,40
2016-08-01T09:57:41.869Z,44
2016-08-01T09:58:41.873Z,44
2016-08-01T09:59:41.869Z,44
2016-08-01T10:00:41.886Z,48
2016-08-01T10:01:42.578Z,48
2016-08-01T10:02:41.914Z,48
2016-08-01T10:03:41.899Z,44
2016-08-01T10:04:41.927Z,48
2016-08-01T10:05:41.931Z,28
2016-08-01T10:06:41.920Z,24
2016-08-01T10:07:41.947Z,24
2016-08-01T10:08:41.929Z,48
2016-08-01T10:09:41.947Z,48
2016-08-01T10:10:41.954Z,40
2016-08-01T10:11:41.973Z,28
2016-08-01T10:12:41.987Z,48
2016-08-01T10:13:42.000Z,40
2016-08-01T10:14:42.005Z,52
2016-08-01T10:15:42.718Z,28
2016-08-01T10:16:42.020Z,28
2016-08-01T10:17:42.005Z,24
2016-08-01T10:18:42.046Z,56
2016-08-01T10:19:42.025Z,52
2016-08-01T10:20:42.075Z,52
2016-08-01T10:21:42.057Z,48
2016-08-01T10:22:42.041Z,48
2016-08-01T10:23:42.062Z,44
2016-08-01T10:24:42.085Z,44
2016-08-01T10:25:42.116Z,48
2016-08-01T10:26:42.104Z,48
2016-08-01T10:27:42.108Z,48
2016-08-01T10:28:42.137Z,48
2016-08-01T10:29:42.117Z,48
2016-08-01T10:30:42.136Z,48
2016-08-01T10:31:42.150Z,44
2016-08-01T10:32:42.147Z,48
2016-08-01T10:33:42.185Z,52
2016-08-01T10:34:42.177Z,56
2016-08-01T10:35:42.184Z,56
2016-08-01T10:36:42.204Z,52
2016-08-01T10:37:42.178Z,56
2016-08-01T10:38:42.184Z,52
2016-08-01T10:39:42.213Z,52
2016-08-01T10:40:42.212Z,52
2016-08-01T10:41:42.233Z,52
2016-08-01T10:42:42.235Z,52
2016-08-01T10:43:42.214Z,56
2016-08-01T10:44:42.236Z,56
2016-08-01T10:45:42.273Z,56
2016-08-01T10:46:42.263Z,56
2016-08-01T10:47:42.276Z,60
2016-08-01T10:48:42.992Z,60
2016-08-01T10:49:42.309Z,56
2016-08-01T10:50:42.315Z,60
2016-08-01T10:51:42.306Z,60
2016-08-01T10:52:42.288Z,60
2016-08-01T10:53:42.340Z,56
2016-08-01T10:54:42.335Z,56
2016-08-01T10:55:42.356Z,60
2016-08-01T10:56:42.350Z,56
2016-08-01T10:57:42.339Z,60
2016-08-01T10:58:42.384Z,36
2016-08-01T10:59:42.383Z,64
2016-08-01T11:00:42.385Z,64
2016-08-01T11:01:42.403Z,36
2016-08-01T11:02:42.371Z,36
2016-08-01T11:03:42.406Z,36
2016-08-01T11:04:42.398Z,36
2016-08-01T11:05:42.402Z,60
2016-08-01T11:06:42.443Z,32
2016-08-01T11:07:42.456Z,36
2016-08-01T11:08:42.454Z,40
2016-08-01T11:09:42.491Z,52
2016-08-01T11:10:43.181Z,64
2016-08-01T11:11:42.442Z,60
2016-08-01T11:12:42.464Z,64
2016-08-01T11:13:42.478Z,64
2016-08-01T11:14:42.516Z,40
2016-08-01T11:15:42.507Z,40
2016-08-01T11:16:42.537Z,40
2016-08-01T11:17:42.521Z,40
2016-08-01T11:18:42.532Z,40
2016-08-01T11:19:42.539Z,40
2016-08-01T11:21:42.536Z,40
2016-08-01T11:22:42.573Z,40
2016-08-01T11:23:42.557Z,40
2016-08-01T11:24:42.562Z,68
2016-08-01T11:25:42.600Z,36
2016-08-01T11:26:42.566Z,40
2016-08-01T11:27:42.599Z,36
2016-08-01T11:28:42.605Z,36
2016-08-01T11:29:42.627Z,32
2016-08-01T11:30:42.613Z,60
2016-08-01T11:31:42.629Z,60
2016-08-01T11:32:42.642Z,64
2016-08-01T11:33:42.624Z,64
2016-08-01T11:34:42.649Z,64
2016-08-01T11:36:42.664Z,64
2016-08-01T11:37:42.689Z,64
2016-08-01T11:38:42.689Z,60
2016-08-01T11:39:42.705Z,60
2016-08-01T11:40:42.712Z,60
2016-08-01T11:41:42.689Z,36
2016-08-01T11:42:42.731Z,36
2016-08-01T11:43:42.721Z,60
2016-08-01T11:44:42.715Z,60
2016-08-01T11:45:42.741Z,60
2016-08-01T11:46:42.749Z,60
2016-08-01T11:47:42.772Z,60
2016-08-01T11:48:42.753Z,60
2016-08-01T11:49:42.773Z,56
2016-08-01T11:50:42.990Z,52
2016-08-01T11:51:42.803Z,52
2016-08-01T11:52:42.799Z,52
2016-08-01T11:53:42.768Z,32
2016-08-01T11:54:42.808Z,44
2016-08-01T11:55:42.814Z,52
2016-08-01T11:56:43.504Z,60
2016-08-01T11:57:42.823Z,60
2016-08-01T11:58:43.578Z,60
2016-08-01T11:59:42.845Z,60
2016-08-01T12:00:42.872Z,52
2016-08-01T12:01:42.863Z,56
2016-08-01T12:02:42.859Z,52
2016-08-01T12:03:42.881Z,52
2016-08-01T12:04:42.895Z,52
2016-08-01T12:05:42.901Z,56
2016-08-01T12:06:42.912Z,52
2016-08-01T12:07:42.905Z,56
2016-08-01T12:08:42.909Z,60
2016-08-01T12:09:42.898Z,56
2016-08-01T12:10:42.938Z,60
2016-08-01T12:11:42.946Z,60
2016-08-01T12:12:42.948Z,60
2016-08-01T12:13:42.948Z,56
2016-08-01T12:14:42.955Z,56
2016-08-01T12:15:42.963Z,56
2016-08-01T12:16:42.972Z,56
2016-08-01T12:17:42.983Z,56
2016-08-01T12:18:43.009Z,56
2016-08-01T12:19:42.999Z,60
2016-08-01T12:20:43.036Z,60
2016-08-01T12:21:43.008Z,60
2016-08-01T12:22:43.025Z,60
2016-08-01T12:23:43.044Z,64
2016-08-01T12:24:43.063Z,60
2016-08-01T12:25:43.045Z,60
2016-08-01T12:26:43.059Z,56
2016-08-01T12:27:43.093Z,28
2016-08-01T12:28:43.054Z,36
2016-08-01T12:29:43.090Z,60
2016-08-01T12:30:43.096Z,56
2016-08-01T12:31:43.087Z,56
2016-08-01T12:32:43.111Z,56
2016-08-01T12:33:43.115Z,60
2016-08-01T12:34:43.112Z,60
2016-08-01T12:35:43.125Z,36
2016-08-01T12:36:43.144Z,40
2016-08-01T12:37:43.150Z,60
2016-08-01T12:38:43.141Z,60
2016-08-01T12:39:43.152Z,60
2016-08-01T12:40:43.180Z,64
2016-08-01T12:41:43.174Z,36
2016-08-01T12:42:43.188Z,40
2016-08-01T12:43:43.163Z,40
2016-08-01T12:44:43.191Z,40
2016-08-01T12:45:43.217Z,64
2016-08-01T12:46:43.199Z,40
2016-08-01T12:47:43.199Z,40
2016-08-01T12:48:43.249Z,48
2016-08-01T12:49:43.233Z,64
2016-08-01T12:50:43.286Z,52
2016-08-01T12:51:43.262Z,40
2016-08-01T12:52:43.282Z,40
2016-08-01T12:53:43.245Z,52
2016-08-01T12:54:43.311Z,72
2016-08-01T12:55:43.278Z,64
2016-08-01T12:56:43.294Z,48
2016-08-01T12:57:43.292Z,36
2016-08-01T12:58:43.325Z,32
2016-08-01T12:59:43.347Z,36
2016-08-01T13:00:43.345Z,60
2016-08-01T13:01:43.333Z,60
2016-08-01T13:02:43.315Z,60
2016-08-01T13:03:43.336Z,60
2016-08-01T13:04:43.389Z,40
2016-08-01T13:05:43.385Z,64
2016-08-01T13:06:43.370Z,68
2016-08-01T13:07:43.350Z,64
2016-08-01T13:08:43.389Z,60
2016-08-01T13:09:43.394Z,60
2016-08-01T13:10:43.379Z,40
2016-08-01T13:11:43.427Z,56
2016-08-01T13:12:43.424Z,36
2016-08-01T13:13:43.430Z,36
2016-08-01T13:14:43.432Z,36
2016-08-01T13:15:43.435Z,36
2016-08-01T13:16:43.448Z,36
2016-08-01T13:17:43.450Z,32
2016-08-01T13:18:43.449Z,32
2016-08-01T13:19:44.148Z,32
2016-08-01T13:20:43.499Z,40
2016-08-01T13:21:43.472Z,48
2016-08-01T13:22:43.507Z,36
2016-08-01T13:23:43.498Z,32
2016-08-01T13:24:43.515Z,48
2016-08-01T13:25:43.545Z,36
2016-08-01T13:26:43.515Z,32
2016-08-01T13:27:43.549Z,40
2016-08-01T13:28:43.558Z,40
2016-08-01T13:29:43.558Z,44
2016-08-01T13:30:43.575Z,40
2016-08-01T13:31:43.599Z,44
2016-08-01T13:32:43.582Z,64
2016-08-01T13:33:43.601Z,64
2016-08-01T13:34:43.575Z,56
2016-08-01T13:35:43.594Z,44
2016-08-01T13:36:43.639Z,40
2016-08-01T13:37:43.595Z,40
2016-08-01T13:38:43.611Z,40
2016-08-01T13:39:43.641Z,40
2016-08-01T13:40:43.621Z,36
2016-08-01T13:41:43.630Z,40
2016-08-01T13:42:43.661Z,56
2016-08-01T13:43:43.649Z,52
2016-08-01T13:44:43.684Z,52
2016-08-01T13:45:43.659Z,44
2016-08-01T13:46:43.667Z,44
2016-08-01T13:47:43.703Z,44
2016-08-01T13:48:43.706Z,56
2016-08-01T13:49:43.705Z,48
2016-08-01T13:50:43.720Z,44
2016-08-01T13:51:43.707Z,44
2016-08-01T13:52:43.723Z,40
2016-08-01T13:53:43.713Z,40
2016-08-01T13:54:43.768Z,40
2016-08-01T13:55:43.772Z,44
2016-08-01T13:56:43.775Z,40
2016-08-01T13:57:43.769Z,36
2016-08-01T13:58:43.778Z,36
2016-08-01T13:59:43.772Z,32
2016-08-01T14:00:43.816Z,28
2016-08-01T14:01:43.813Z,24
2016-08-01T14:02:43.795Z,24
2016-08-01T14:03:43.793Z,24
2016-08-01T14:04:43.824Z,24
2016-08-01T14:05:43.845Z,24
2016-08-01T14:06:43.851Z,28
2016-08-01T14:07:43.878Z,28
2016-08-01T14:08:43.870Z,28
2016-08-01T14:09:43.892Z,24
2016-08-01T14:10:43.852Z,24
2016-08-01T14:11:43.890Z,24
2016-08-01T14:12:43.906Z,24
2016-08-01T14:13:43.915Z,20
2016-08-01T14:14:43.882Z,20
2016-08-01T14:15:43.948Z,20
2016-08-01T14:16:43.915Z,20
2016-08-01T14:17:43.941Z,20
2016-08-01T14:18:43.950Z,20
2016-08-01T14:19:43.937Z,24
2016-08-01T14:20:43.952Z,24
2016-08-01T14:21:43.986Z,24
2016-08-01T14:22:44.012Z,32
2016-08-01T14:23:44.003Z,28
2016-08-01T14:24:44.014Z,32
2016-08-01T14:25:44.009Z,36
2016-08-01T14:26:44.017Z,40
2016-08-01T14:27:44.022Z,40
2016-08-01T14:28:44.024Z,48
2016-08-01T14:29:44.049Z,52
2016-08-01T14:30:44.020Z,52
2016-08-01T14:31:44.059Z,52
2016-08-01T14:32:44.069Z,40